Terminal Aerodrome Forecast
Issued by NWS Pocatello, ID

Home | Current Version | Previous Version | Text Only | Print | Product List | Glossary On
Versions: 1 2 3 4 5 6 7 8 9 10 11 12 13
000
FTUS45 KPIH 030520
TAFBYI
TAF
KBYI 030520Z 0306/0406 VRB06KT P6SM FEW100
     FM031700 VRB06KT P6SM VCTS SCT080 BKN120CB
     FM040300 20006KT P6SM VCSH FEW100 SCT120=

USA.gov is the U.S. government's official web portal to all federal, state and local government web resources and services.